Tramore, Ireland
Current Conditions -  °F | °C
As of 10:30 AM on Tuesday 21 Oct 2014 (Local Time) from EIWF Reporting Station
Clear Clear  
Wind Chill: 52°   Ceiling: Unl
Heat Index: 52°   Visibility: 6mi
Dew Point: 41°   Wind: 25mph
Humidity: 67%   Direction: 320°NW
Pressure: 29.91"   Gusts: 43mph
Location:  52.16°N, 7.16°W
Report Text: EIWF 211030Z 32022G37KT CAVOK 11/05 Q1013
Loading
Personal Weather Stations






























Interactive Weather Map
Tropical Storm Tracking
New forecast layout! Learn more

10-Day Weather Forecast

Advertisements
Track Severe Weather on mobile